createdAt,value
2017-08-11T00:01:19.836Z,71.00
2017-08-11T00:03:45.967Z,69.70
2017-08-11T00:06:12.100Z,69.80
2017-08-11T00:08:38.284Z,70.50
2017-08-11T00:11:04.409Z,71.00
2017-08-11T00:13:30.535Z,71.00
2017-08-11T00:15:56.699Z,71.70
2017-08-11T00:18:22.846Z,71.60
2017-08-11T00:20:48.966Z,71.00
2017-08-11T00:23:15.131Z,71.00
2017-08-11T00:25:41.267Z,70.70
2017-08-11T00:28:07.422Z,70.80
2017-08-11T00:30:33.566Z,71.90
2017-08-11T00:32:59.701Z,71.00
2017-08-11T00:35:25.862Z,71.00
2017-08-11T00:37:51.979Z,70.80
2017-08-11T00:40:18.138Z,71.20
2017-08-11T00:42:44.266Z,70.80
2017-08-11T00:45:10.394Z,70.80
2017-08-11T00:47:36.513Z,71.10
2017-08-11T00:50:02.647Z,70.80
2017-08-11T00:52:28.755Z,70.60
2017-08-11T00:54:54.906Z,70.90
2017-08-11T00:57:21.011Z,70.70
2017-08-11T00:59:47.147Z,71.40
2017-08-11T01:02:13.289Z,71.70
2017-08-11T01:04:39.436Z,72.00
2017-08-11T01:07:05.603Z,72.10
2017-08-11T01:09:31.746Z,72.00
2017-08-11T01:11:57.936Z,71.70
2017-08-11T01:14:24.109Z,70.90
2017-08-11T01:16:50.256Z,71.70
2017-08-11T01:19:16.423Z,70.80
2017-08-11T01:21:42.591Z,70.50
2017-08-11T01:24:08.755Z,70.60
2017-08-11T01:26:34.907Z,70.90
2017-08-11T01:29:01.066Z,71.10
2017-08-11T01:31:27.255Z,71.30
2017-08-11T01:33:53.428Z,71.10
2017-08-11T01:36:19.614Z,71.30
2017-08-11T01:38:45.767Z,71.30
2017-08-11T01:41:11.948Z,71.60
2017-08-11T01:43:38.110Z,71.40
2017-08-11T01:46:04.291Z,71.30
2017-08-11T01:48:30.487Z,70.90
2017-08-11T01:50:56.655Z,71.00
2017-08-11T01:53:22.834Z,70.30
2017-08-11T01:55:49.009Z,70.20
2017-08-11T01:58:15.171Z,71.10
2017-08-11T02:00:41.349Z,71.20
2017-08-11T02:03:07.522Z,71.90
2017-08-11T02:05:33.712Z,71.40
2017-08-11T02:07:59.925Z,71.20
2017-08-11T02:10:26.127Z,71.80
2017-08-11T02:12:52.322Z,72.20
2017-08-11T02:15:18.494Z,72.30
2017-08-11T02:17:44.680Z,72.10
2017-08-11T02:20:10.835Z,72.20
2017-08-11T02:22:37.011Z,71.90
2017-08-11T02:25:03.180Z,72.20
2017-08-11T02:27:29.318Z,71.90
2017-08-11T02:29:55.468Z,71.40
2017-08-11T02:32:21.606Z,71.50
2017-08-11T02:34:47.758Z,70.80
2017-08-11T02:37:13.916Z,70.30
2017-08-11T02:39:40.070Z,70.40
2017-08-11T02:42:06.198Z,70.40
2017-08-11T02:44:32.351Z,70.60
2017-08-11T02:46:58.503Z,70.20
2017-08-11T02:49:24.655Z,70.40
2017-08-11T02:51:50.786Z,70.00
2017-08-11T02:54:16.948Z,71.10
2017-08-11T02:56:43.074Z,70.50
2017-08-11T02:59:09.203Z,70.60
2017-08-11T03:01:35.356Z,70.80
2017-08-11T03:04:01.520Z,71.70
2017-08-11T03:06:27.713Z,71.30
2017-08-11T03:08:53.907Z,71.50
2017-08-11T03:11:20.058Z,71.40
2017-08-11T03:13:46.186Z,71.40
2017-08-11T03:16:12.358Z,71.60
2017-08-11T03:18:38.518Z,71.60
2017-08-11T03:21:04.680Z,71.70
2017-08-11T03:23:30.814Z,72.00
2017-08-11T03:25:56.965Z,72.10
2017-08-11T03:28:23.090Z,71.50
2017-08-11T03:30:49.254Z,72.80
2017-08-11T03:33:15.380Z,72.00
2017-08-11T03:35:41.506Z,72.80
2017-08-11T03:38:07.651Z,72.40
2017-08-11T03:40:33.786Z,72.00
2017-08-11T03:42:59.934Z,71.70
2017-08-11T03:45:32.947Z,71.70
2017-08-11T03:47:59.103Z,72.00
2017-08-11T03:50:25.248Z,71.90
2017-08-11T03:52:51.402Z,72.00
2017-08-11T03:55:17.543Z,72.00
2017-08-11T03:57:43.682Z,71.70
2017-08-11T04:00:09.818Z,71.60
2017-08-11T04:02:35.979Z,71.30
2017-08-11T04:05:02.132Z,71.20
2017-08-11T04:07:28.307Z,71.30
2017-08-11T04:09:54.438Z,71.70
2017-08-11T04:12:20.566Z,71.50
2017-08-11T04:14:46.718Z,71.50
2017-08-11T04:17:12.834Z,71.40
2017-08-11T04:19:38.979Z,71.70
2017-08-11T04:22:05.101Z,71.80
2017-08-11T04:24:31.300Z,71.30
2017-08-11T04:26:57.418Z,71.40
2017-08-11T04:29:23.541Z,71.40
2017-08-11T04:31:49.650Z,71.10
2017-08-11T04:34:15.774Z,71.20
2017-08-11T04:36:41.890Z,71.00
2017-08-11T04:39:08.067Z,71.10
2017-08-11T04:41:34.207Z,70.80
2017-08-11T04:44:00.342Z,70.90
2017-08-11T04:46:26.447Z,70.90
2017-08-11T04:48:52.567Z,70.70
2017-08-11T04:51:18.706Z,70.70
2017-08-11T04:53:44.843Z,71.40
2017-08-11T04:56:11.020Z,71.60
2017-08-11T04:58:37.135Z,71.40
2017-08-11T05:01:03.277Z,72.10
2017-08-11T05:03:29.395Z,72.20
2017-08-11T05:05:55.534Z,72.20
2017-08-11T05:08:21.690Z,72.20
2017-08-11T05:10:47.830Z,72.30
2017-08-11T05:13:13.966Z,72.50
2017-08-11T05:15:40.203Z,72.70
2017-08-11T05:18:06.355Z,72.60
2017-08-11T05:20:32.482Z,72.50
2017-08-11T05:23:05.496Z,72.40
2017-08-11T05:25:34.597Z,72.30
2017-08-11T05:28:00.866Z,72.80
2017-08-11T05:30:27.525Z,72.70
2017-08-11T05:32:53.824Z,72.80
2017-08-11T05:35:20.389Z,72.90
2017-08-11T05:37:46.643Z,72.90
2017-08-11T05:40:12.833Z,73.50
2017-08-11T05:42:39.026Z,73.70
2017-08-11T05:45:05.192Z,74.00
2017-08-11T05:47:31.388Z,73.80
2017-08-11T05:49:57.535Z,73.80
2017-08-11T05:52:23.721Z,73.90
2017-08-11T05:54:49.937Z,74.30
2017-08-11T05:57:16.087Z,74.40
2017-08-11T05:59:42.332Z,74.60
2017-08-11T06:02:08.545Z,74.30
2017-08-11T06:04:34.763Z,75.40
2017-08-11T06:07:00.903Z,74.90
2017-08-11T06:09:27.072Z,75.20
2017-08-11T06:11:53.233Z,75.50
2017-08-11T06:14:19.379Z,75.60
2017-08-11T06:16:45.528Z,75.60
2017-08-11T06:19:11.743Z,75.70
2017-08-11T06:21:37.894Z,75.90
2017-08-11T06:24:04.056Z,75.70
2017-08-11T06:26:30.243Z,75.80
2017-08-11T06:28:56.427Z,75.80
2017-08-11T06:31:22.599Z,75.80
2017-08-11T06:33:48.740Z,75.50
2017-08-11T06:36:14.926Z,75.50
2017-08-11T06:38:41.068Z,75.50
2017-08-11T06:41:07.221Z,75.80
2017-08-11T06:43:33.371Z,75.80
2017-08-11T06:46:00.112Z,75.60
2017-08-11T06:48:26.295Z,75.60
2017-08-11T06:50:52.948Z,75.70
2017-08-11T06:53:19.118Z,75.60
2017-08-11T06:55:45.268Z,75.50
2017-08-11T06:58:11.427Z,75.70
2017-08-11T07:00:37.552Z,75.90
2017-08-11T07:03:03.737Z,76.20
2017-08-11T07:05:29.907Z,76.30
2017-08-11T07:07:56.064Z,76.40
2017-08-11T07:10:22.223Z,76.60
2017-08-11T07:12:48.388Z,76.30
2017-08-11T07:15:14.634Z,76.40
2017-08-11T07:17:40.855Z,76.30
2017-08-11T07:20:07.081Z,77.10
2017-08-11T07:22:33.381Z,76.40
2017-08-11T07:24:59.584Z,76.60
2017-08-11T07:27:25.730Z,76.50
2017-08-11T07:29:51.950Z,76.50
2017-08-11T07:32:18.119Z,76.50
2017-08-11T07:34:44.888Z,76.40
2017-08-11T07:37:11.092Z,76.40
2017-08-11T07:39:37.280Z,76.60
2017-08-11T07:42:03.482Z,76.40
2017-08-11T07:44:29.666Z,76.30
2017-08-11T07:46:55.787Z,76.50
2017-08-11T07:49:21.971Z,76.50
2017-08-11T07:51:48.140Z,76.90
2017-08-11T07:54:14.307Z,76.50
2017-08-11T07:56:40.431Z,76.60
2017-08-11T07:59:06.591Z,76.80
2017-08-11T08:01:32.776Z,76.80
2017-08-11T08:03:58.921Z,76.50
2017-08-11T08:06:25.090Z,76.30
2017-08-11T08:08:51.269Z,76.50
2017-08-11T08:11:17.460Z,76.20
2017-08-11T08:13:44.713Z,76.20
2017-08-11T08:16:10.899Z,76.20
2017-08-11T08:18:37.056Z,75.90
2017-08-11T08:21:03.251Z,75.90
2017-08-11T08:23:29.462Z,75.80
2017-08-11T08:25:55.622Z,75.80
2017-08-11T08:28:21.903Z,75.80
2017-08-11T08:30:48.131Z,75.80
2017-08-11T08:33:14.284Z,75.90
2017-08-11T08:35:40.439Z,75.70
2017-08-11T08:38:06.627Z,75.50
2017-08-11T08:40:32.770Z,75.70
2017-08-11T08:42:58.955Z,75.80
2017-08-11T08:45:25.095Z,75.70
2017-08-11T08:47:51.368Z,75.60
2017-08-11T08:50:17.523Z,75.80
2017-08-11T08:52:43.736Z,76.00
2017-08-11T08:55:09.960Z,75.70
2017-08-11T08:57:36.208Z,75.70
2017-08-11T09:00:02.403Z,75.80
2017-08-11T09:02:28.551Z,75.80
2017-08-11T09:04:54.732Z,75.70
2017-08-11T09:07:20.891Z,75.60
2017-08-11T09:09:47.072Z,75.70
2017-08-11T09:12:13.201Z,75.50
2017-08-11T09:14:39.388Z,75.50
2017-08-11T09:17:05.524Z,75.80
2017-08-11T09:19:31.671Z,75.30
2017-08-11T09:21:57.826Z,74.70
2017-08-11T09:24:36.116Z,74.60
2017-08-11T09:27:14.385Z,74.50
2017-08-11T09:30:04.540Z,73.70
2017-08-11T09:32:42.798Z,73.40
2017-08-11T09:35:30.858Z,73.80
2017-08-11T09:37:57.000Z,73.90
2017-08-11T09:40:23.159Z,74.40
2017-08-11T09:42:49.286Z,74.10
2017-08-11T09:45:15.439Z,73.80
2017-08-11T09:47:41.562Z,73.30
2017-08-11T09:50:07.709Z,73.10
2017-08-11T09:52:33.839Z,72.80
2017-08-11T09:54:59.997Z,72.50
2017-08-11T09:57:26.157Z,72.70
2017-08-11T09:59:52.304Z,72.40
2017-08-11T10:02:18.434Z,72.50
2017-08-11T10:04:44.645Z,72.40
2017-08-11T10:07:10.795Z,72.30
2017-08-11T10:09:37.138Z,71.70
2017-08-11T10:12:03.344Z,71.20
2017-08-11T10:14:29.487Z,71.50
2017-08-11T10:16:55.659Z,70.60
2017-08-11T10:19:21.847Z,71.20
2017-08-11T10:21:48.023Z,71.20
2017-08-11T10:24:14.179Z,71.30
2017-08-11T10:26:40.400Z,71.30
2017-08-11T10:29:06.526Z,71.30
2017-08-11T10:31:32.715Z,70.70
2017-08-11T10:33:58.907Z,71.80
2017-08-11T10:36:25.150Z,71.00
2017-08-11T10:38:51.322Z,71.30
2017-08-11T10:41:17.483Z,71.30
2017-08-11T10:43:43.639Z,71.40
2017-08-11T10:46:09.771Z,71.40
2017-08-11T10:48:35.947Z,71.90
2017-08-11T10:51:02.107Z,71.00
2017-08-11T10:53:28.230Z,71.00
2017-08-11T10:55:54.659Z,71.10
2017-08-11T10:58:20.812Z,71.10
2017-08-11T11:00:46.971Z,71.20
2017-08-11T11:03:13.143Z,71.30
2017-08-11T11:05:39.371Z,71.80
2017-08-11T11:08:05.615Z,71.50
2017-08-11T11:10:31.791Z,72.40
2017-08-11T11:12:57.974Z,72.10
2017-08-11T11:15:24.168Z,72.00
2017-08-11T11:17:50.322Z,72.30
2017-08-11T11:20:16.572Z,71.00
2017-08-11T11:22:42.984Z,72.00
2017-08-11T11:25:09.124Z,72.00
2017-08-11T11:27:35.419Z,69.70
2017-08-11T11:30:01.591Z,70.70
2017-08-11T11:32:28.167Z,70.90
2017-08-11T11:34:54.319Z,72.50
2017-08-11T11:37:20.476Z,69.60
2017-08-11T11:39:46.781Z,70.80
2017-08-11T11:42:14.126Z,71.00
2017-08-11T11:44:40.460Z,71.00
2017-08-11T11:47:06.673Z,71.00
2017-08-11T11:49:32.847Z,72.30
2017-08-11T11:51:59.012Z,70.80
2017-08-11T11:54:25.156Z,71.40
2017-08-11T11:56:51.330Z,70.60
2017-08-11T11:59:17.492Z,69.90
2017-08-11T12:01:43.652Z,70.70
2017-08-11T12:04:09.861Z,69.70
2017-08-11T12:06:36.071Z,70.10
2017-08-11T12:09:02.387Z,71.00
2017-08-11T12:11:28.634Z,71.10
2017-08-11T12:13:54.898Z,70.60
2017-08-11T12:16:21.092Z,69.90
2017-08-11T12:18:47.312Z,69.70
2017-08-11T12:21:13.555Z,69.20
2017-08-11T12:23:39.705Z,70.00
2017-08-11T12:26:05.912Z,70.10
2017-08-11T12:28:32.168Z,69.80
2017-08-11T12:30:58.381Z,70.20
2017-08-11T12:33:24.685Z,70.20
2017-08-11T12:35:50.895Z,71.10
2017-08-11T12:38:17.169Z,72.00
2017-08-11T12:40:43.479Z,70.80
2017-08-11T12:43:09.751Z,70.90
2017-08-11T12:45:36.085Z,70.50
2017-08-11T12:48:02.299Z,71.10
2017-08-11T12:50:28.479Z,71.70
2017-08-11T12:52:54.651Z,71.00
2017-08-11T12:55:21.900Z,70.70
2017-08-11T12:57:48.136Z,70.40
2017-08-11T13:00:14.367Z,71.80
2017-08-11T13:02:40.544Z,72.00
2017-08-11T13:05:06.699Z,72.00
2017-08-11T13:07:32.955Z,72.20
2017-08-11T13:09:59.115Z,72.50
2017-08-11T13:12:25.252Z,71.60
2017-08-11T13:14:51.432Z,72.40
2017-08-11T13:17:17.864Z,72.60
2017-08-11T13:19:44.052Z,72.30
2017-08-11T13:22:10.245Z,72.40
2017-08-11T13:24:36.419Z,71.90
2017-08-11T13:27:02.636Z,72.10
2017-08-11T13:29:28.855Z,72.50
2017-08-11T13:32:04.735Z,72.40
2017-08-11T13:34:30.978Z,72.70
2017-08-11T13:36:57.114Z,72.90
2017-08-11T13:39:23.295Z,72.40
2017-08-11T13:41:49.599Z,72.00
2017-08-11T13:44:15.799Z,72.40
2017-08-11T13:46:42.050Z,72.50
2017-08-11T13:49:08.245Z,72.80
2017-08-11T13:51:34.425Z,72.10
2017-08-11T13:54:00.592Z,72.60
2017-08-11T13:56:26.731Z,72.40
2017-08-11T13:58:54.068Z,72.70
2017-08-11T14:01:20.220Z,74.20
2017-08-11T14:03:46.360Z,73.80
2017-08-11T14:06:12.539Z,73.20
2017-08-11T14:08:38.741Z,73.40
2017-08-11T14:11:04.904Z,73.40
2017-08-11T14:13:31.091Z,73.20
2017-08-11T14:15:57.303Z,73.60
2017-08-11T14:18:23.456Z,74.00
2017-08-11T14:20:49.832Z,73.90
2017-08-11T14:23:22.557Z,74.10
2017-08-11T14:25:48.720Z,74.00
2017-08-11T14:28:15.149Z,74.30
2017-08-11T14:30:53.044Z,74.70
2017-08-11T14:33:19.231Z,74.70
2017-08-11T14:35:45.512Z,75.10
2017-08-11T14:38:11.749Z,74.60
2017-08-11T14:40:37.895Z,75.00
2017-08-11T14:43:04.135Z,75.00
2017-08-11T14:45:30.319Z,74.80
2017-08-11T14:47:56.475Z,74.40
2017-08-11T14:50:22.631Z,74.10
2017-08-11T14:52:48.835Z,74.00
2017-08-11T14:55:15.611Z,73.80
2017-08-11T14:57:41.751Z,73.80
2017-08-11T15:00:07.908Z,73.70
2017-08-11T15:02:34.043Z,73.70
2017-08-11T15:05:00.216Z,73.70
2017-08-11T15:07:26.356Z,74.70
2017-08-11T15:09:52.742Z,73.00
2017-08-11T15:12:19.012Z,73.10
2017-08-11T15:14:45.213Z,72.10
2017-08-11T15:17:11.384Z,71.70
2017-08-11T15:19:37.547Z,72.50
2017-08-11T15:22:03.731Z,72.00
2017-08-11T15:24:29.900Z,72.30
2017-08-11T15:26:56.100Z,72.50
2017-08-11T15:29:22.318Z,73.40
2017-08-11T15:31:51.081Z,73.40
2017-08-11T15:34:17.299Z,73.00
2017-08-11T15:36:43.542Z,73.30
2017-08-11T15:39:09.683Z,73.00
2017-08-11T15:41:35.858Z,73.20
2017-08-11T15:44:02.000Z,72.70
2017-08-11T15:46:28.155Z,72.70
2017-08-11T15:48:54.678Z,73.00
2017-08-11T15:51:20.959Z,72.60
2017-08-11T15:53:47.158Z,72.70
2017-08-11T15:56:13.780Z,72.90
2017-08-11T15:58:40.151Z,72.70
2017-08-11T16:01:06.347Z,72.60
2017-08-11T16:03:32.515Z,73.00
2017-08-11T16:05:58.747Z,72.70
2017-08-11T16:08:24.899Z,72.50
2017-08-11T16:10:51.088Z,72.40
2017-08-11T16:13:17.252Z,72.00
2017-08-11T16:15:43.435Z,72.30
2017-08-11T16:18:09.671Z,71.90
2017-08-11T16:20:35.827Z,72.30
2017-08-11T16:23:01.989Z,72.50
2017-08-11T16:25:28.131Z,72.20
2017-08-11T16:27:54.276Z,71.60
2017-08-11T16:30:20.430Z,71.60
2017-08-11T16:32:46.588Z,72.10
2017-08-11T16:35:12.789Z,71.60
2017-08-11T16:37:38.974Z,70.40
2017-08-11T16:40:05.135Z,71.40
2017-08-11T16:42:31.329Z,70.30
2017-08-11T16:44:57.519Z,70.90
2017-08-11T16:47:23.671Z,71.30
2017-08-11T16:49:50.487Z,70.90
2017-08-11T16:52:16.635Z,71.00
2017-08-11T16:54:42.876Z,70.80
2017-08-11T16:57:09.394Z,70.50
2017-08-11T16:59:35.565Z,70.30
2017-08-11T17:02:01.791Z,70.40
2017-08-11T17:04:28.076Z,70.40
2017-08-11T17:06:54.296Z,70.60
2017-08-11T17:09:20.476Z,70.50
2017-08-11T17:11:46.627Z,70.70
2017-08-11T17:14:12.816Z,70.60
2017-08-11T17:16:39.060Z,71.30
2017-08-11T17:19:05.324Z,71.30
2017-08-11T17:21:31.483Z,71.10
2017-08-11T17:23:57.708Z,71.80
2017-08-11T17:26:23.883Z,70.80
2017-08-11T17:28:50.031Z,71.10
2017-08-11T17:31:16.199Z,71.40
2017-08-11T17:33:42.355Z,71.70
2017-08-11T17:36:08.606Z,71.70
2017-08-11T17:38:34.799Z,72.00
2017-08-11T17:41:13.031Z,71.50
2017-08-11T17:43:39.332Z,71.90
2017-08-11T17:46:05.516Z,72.50
2017-08-11T17:48:31.679Z,72.50
2017-08-11T17:50:57.871Z,72.70
2017-08-11T17:53:26.105Z,72.80
2017-08-11T17:55:52.397Z,73.20
2017-08-11T17:58:18.544Z,73.10
2017-08-11T18:00:44.744Z,74.40
2017-08-11T18:03:13.295Z,74.10
2017-08-11T18:05:39.720Z,73.20
2017-08-11T18:08:05.886Z,72.40
2017-08-11T18:10:32.067Z,71.70
2017-08-11T18:12:58.235Z,71.30
2017-08-11T18:15:24.428Z,71.50
2017-08-11T18:17:50.628Z,71.90
2017-08-11T18:20:16.846Z,71.30
2017-08-11T18:22:43.137Z,71.50
2017-08-11T18:25:09.290Z,72.00
2017-08-11T18:27:35.472Z,71.90
2017-08-11T18:30:01.751Z,71.90
2017-08-11T18:32:27.943Z,72.10
2017-08-11T18:34:58.039Z,71.60
2017-08-11T18:37:24.274Z,71.60
2017-08-11T18:39:50.434Z,71.90
2017-08-11T18:42:16.604Z,71.40
2017-08-11T18:44:42.786Z,71.30
2017-08-11T18:47:08.943Z,71.40
2017-08-11T18:49:35.128Z,72.10
2017-08-11T18:52:01.306Z,71.70
2017-08-11T18:54:27.539Z,71.70
2017-08-11T18:56:53.748Z,71.90
2017-08-11T18:59:19.981Z,72.40
2017-08-11T19:01:46.200Z,72.00
2017-08-11T19:04:12.371Z,72.10
2017-08-11T19:06:38.499Z,72.00
2017-08-11T19:09:04.686Z,71.80
2017-08-11T19:11:31.851Z,71.70
2017-08-11T19:13:58.478Z,72.10
2017-08-11T19:16:24.803Z,72.10
2017-08-11T19:18:56.819Z,72.80
2017-08-11T19:21:23.137Z,72.70
2017-08-11T19:23:49.287Z,72.60
2017-08-11T19:26:15.461Z,72.70
2017-08-11T19:28:41.695Z,72.70
2017-08-11T19:31:07.952Z,72.60
2017-08-11T19:33:34.103Z,72.40
2017-08-11T19:36:00.283Z,72.70
2017-08-11T19:38:26.446Z,72.70
2017-08-11T19:40:52.632Z,72.60
2017-08-11T19:43:18.800Z,72.70
2017-08-11T19:45:44.967Z,72.90
2017-08-11T19:48:11.131Z,73.30
2017-08-11T19:50:37.509Z,73.40
2017-08-11T19:53:03.663Z,73.60
2017-08-11T19:55:29.840Z,74.10
2017-08-11T19:57:56.107Z,74.20
2017-08-11T20:00:22.332Z,74.30
2017-08-11T20:02:48.770Z,74.50
2017-08-11T20:05:15.052Z,74.90
2017-08-11T20:07:41.288Z,75.10
2017-08-11T20:10:07.463Z,74.90
2017-08-11T20:12:33.627Z,74.90
2017-08-11T20:14:59.879Z,75.00
2017-08-11T20:17:26.237Z,74.70
2017-08-11T20:19:52.660Z,75.10
2017-08-11T20:22:18.927Z,75.30
2017-08-11T20:24:45.283Z,75.40
2017-08-11T20:27:11.464Z,75.60
2017-08-11T20:29:37.649Z,75.40
2017-08-11T20:32:03.795Z,75.70
2017-08-11T20:34:38.513Z,75.50
2017-08-11T20:37:04.677Z,75.70
2017-08-11T20:39:30.839Z,75.40
2017-08-11T20:41:57.363Z,75.50
2017-08-11T20:47:08.248Z,75.70
2017-08-11T20:49:34.525Z,75.90
2017-08-11T20:52:00.660Z,75.80
2017-08-11T20:54:26.837Z,76.00
2017-08-11T20:56:53.911Z,75.70
2017-08-11T20:59:20.219Z,76.40
2017-08-11T21:01:46.540Z,76.50
2017-08-11T21:04:12.810Z,76.60
2017-08-11T21:06:39.194Z,76.30
2017-08-11T21:09:05.393Z,76.50
2017-08-11T21:11:31.612Z,76.50
2017-08-11T21:13:57.828Z,76.60
2017-08-11T21:16:24.133Z,77.20
2017-08-11T21:18:50.279Z,77.00
2017-08-11T21:21:16.564Z,77.20
2017-08-11T21:23:42.831Z,77.20
2017-08-11T21:26:09.015Z,77.20
2017-08-11T21:28:35.169Z,77.20
2017-08-11T21:31:01.411Z,77.20
2017-08-11T21:33:27.766Z,77.20
2017-08-11T21:35:53.975Z,77.20
2017-08-11T21:38:20.155Z,77.20
2017-08-11T21:40:46.338Z,77.20
2017-08-11T21:43:12.572Z,77.20
2017-08-11T21:45:38.804Z,77.20
2017-08-11T21:48:05.208Z,77.20
2017-08-11T21:50:31.554Z,77.20
2017-08-11T21:52:57.772Z,77.30
2017-08-11T21:55:23.927Z,77.80
2017-08-11T21:57:50.318Z,77.60
2017-08-11T22:00:16.484Z,77.80
2017-08-11T22:02:42.706Z,77.90
2017-08-11T22:05:08.983Z,77.90
2017-08-11T22:07:35.176Z,77.80
2017-08-11T22:10:01.342Z,77.80
2017-08-11T22:12:27.522Z,77.60
2017-08-11T22:14:53.736Z,77.40
2017-08-11T22:17:19.911Z,77.50
2017-08-11T22:19:46.095Z,77.60
2017-08-11T22:22:12.295Z,77.20
2017-08-11T22:24:38.448Z,77.30
2017-08-11T22:27:04.639Z,77.80
2017-08-11T22:29:30.891Z,77.60
2017-08-11T22:31:57.075Z,77.80
2017-08-11T22:34:25.570Z,78.10
2017-08-11T22:36:51.775Z,77.90
2017-08-11T22:39:17.956Z,77.90
2017-08-11T22:41:44.152Z,77.90
2017-08-11T22:44:10.416Z,77.50
2017-08-11T22:46:36.618Z,77.40
2017-08-11T22:49:02.803Z,77.70
2017-08-11T22:51:29.155Z,77.70
2017-08-11T22:53:55.316Z,77.70
2017-08-11T22:56:21.460Z,77.70
2017-08-11T23:01:41.662Z,77.00
2017-08-11T23:04:11.603Z,77.50
2017-08-11T23:06:37.842Z,77.50
2017-08-11T23:09:04.003Z,77.80
2017-08-11T23:11:30.242Z,77.80
2017-08-11T23:13:56.509Z,77.90
2017-08-11T23:16:22.730Z,77.60
2017-08-11T23:18:48.863Z,77.80
2017-08-11T23:21:15.016Z,78.00
2017-08-11T23:23:41.274Z,78.00
2017-08-11T23:26:07.561Z,77.90
2017-08-11T23:28:34.704Z,78.00
2017-08-11T23:31:01.251Z,78.10
2017-08-11T23:33:27.468Z,78.30
2017-08-11T23:35:53.633Z,78.20
2017-08-11T23:38:19.791Z,78.20
2017-08-11T23:40:45.959Z,78.30
2017-08-11T23:43:12.291Z,78.30
2017-08-11T23:45:38.461Z,78.30
2017-08-11T23:48:04.622Z,78.30
2017-08-11T23:50:30.926Z,78.20
2017-08-11T23:52:57.675Z,78.20
2017-08-11T23:55:23.868Z,78.20
2017-08-11T23:57:51.877Z,78.20
